Time;durP1;ratioP1;P1;durP2;ratioP2;P2;SDS_P1;SDS_P2;PMS_P1;PMS_P2;Temp;Humidity;BMP_temperature;BMP_pressure;BME280_temperature;BME280_humidity;BME280_pressure;Samples;Min_cycle;Max_cycle;Signal;HPM_P1;HPM_P2
2022/12/29 00:01:43;;;;;;;0.47;0.47;;;7.60;98.50;;;;;;5031129;28;20640;-68
2022/12/29 00:04:13;;;;;;;0.60;0.60;;;7.50;98.60;;;;;;5039727;28;20645;-70
2022/12/29 00:06:40;;;;;;;0.53;0.53;;;7.60;98.50;;;;;;5033402;28;20656;-68
2022/12/29 00:09:07;;;;;;;0.40;0.30;;;7.50;98.70;;;;;;5047202;28;21004;-68
2022/12/29 00:11:33;;;;;;;0.40;0.30;;;7.70;98.40;;;;;;5036344;28;20641;-68
2022/12/29 00:16:46;;;;;;;0.63;0.63;;;7.70;98.50;;;;;;5033803;28;20623;-69
2022/12/29 00:36:01;;;;;;;0.53;0.53;;;8.00;97.80;;;;;;5043152;28;20623;-72
2022/12/29 00:44:09;;;;;;;1.23;0.67;;;8.00;97.50;;;;;;5026200;28;21031;-70
2022/12/29 00:46:37;;;;;;;0.63;0.63;;;8.00;97.80;;;;;;5030886;28;21231;-70
2022/12/29 00:51:50;;;;;;;1.33;0.80;;;8.10;97.70;;;;;;5024010;28;20993;-70
2022/12/29 00:54:18;;;;;;;2.87;1.00;;;8.30;99.90;;;;;;5044706;28;20630;-69
2022/12/29 00:56:47;;;;;;;0.90;0.80;;;8.30;97.20;;;;;;5038324;28;20630;-70
2022/12/29 00:59:14;;;;;;;0.60;0.50;;;8.30;97.30;;;;;;5017834;28;21196;-70
2022/12/29 01:01:41;;;;;;;0.50;0.47;;;8.30;97.50;;;;;;5043533;28;20668;-69
2022/12/29 01:04:10;;;;;;;0.63;0.63;;;8.20;97.50;;;;;;5035614;28;20627;-70
2022/12/29 01:06:37;;;;;;;0.43;0.43;;;8.20;97.60;;;;;;5027052;28;20640;-70
2022/12/29 01:11:49;;;;;;;1.20;1.10;;;8.10;97.60;;;;;;5030100;28;20942;-69
2022/12/29 01:14:16;;;;;;;0.90;0.60;;;8.10;97.70;;;;;;5046684;28;20636;-70
2022/12/29 01:16:43;;;;;;;1.00;0.90;;;8.10;97.60;;;;;;5045694;28;21038;-69
2022/12/29 01:19:12;;;;;;;0.67;0.67;;;8.10;97.70;;;;;;5027865;28;20631;-70
2022/12/29 01:21:38;;;;;;;0.50;0.50;;;8.10;97.70;;;;;;5036062;28;20633;-69
2022/12/29 01:24:06;;;;;;;0.67;0.37;;;8.10;97.80;;;;;;5035814;28;20634;-70
2022/12/29 01:26:33;;;;;;;2.60;1.00;;;8.00;98.10;;;;;;5029271;28;21198;-70
2022/12/29 01:29:00;;;;;;;0.77;0.50;;;8.00;97.90;;;;;;5046408;28;20630;-70
2022/12/29 01:31:26;;;;;;;0.57;0.50;;;8.00;97.70;;;;;;5035837;28;20654;-69
2022/12/29 01:33:53;;;;;;;0.93;0.80;;;7.20;98.50;;;;;;5025731;28;20686;-70
2022/12/29 01:36:21;;;;;;;0.60;0.60;;;7.90;98.10;;;;;;5030851;28;20622;-69
2022/12/29 01:38:48;;;;;;;0.53;0.53;;;7.90;99.90;;;;;;5033879;28;20625;-70
2022/12/29 01:41:17;;;;;;;0.50;0.47;;;8.00;97.80;;;;;;5029246;28;20622;-70
2022/12/29 01:43:46;;;;;;;0.63;0.50;;;8.00;98.00;;;;;;5030302;28;20635;-69
2022/12/29 01:46:24;;;;;;;0.73;0.73;;;8.10;98.10;;;;;;5025700;28;20627;-70
2022/12/29 01:48:54;;;;;;;0.40;0.40;;;8.00;98.20;;;;;;5026207;28;20623;-70
2022/12/29 01:51:23;;;;;;;1.80;1.00;;;8.20;98.00;;;;;;5025450;28;21017;-67
2022/12/29 01:53:51;;;;;;;0.77;0.77;;;8.20;97.80;;;;;;5026133;28;20667;-68
2022/12/29 01:56:20;;;;;;;0.57;0.57;;;8.10;98.00;;;;;;5040269;28;21192;-69
2022/12/29 01:58:49;;;;;;;1.30;1.17;;;8.40;99.90;;;;;;5025501;28;20630;-69
2022/12/29 02:01:19;;;;;;;0.80;0.70;;;8.20;97.90;;;;;;5029533;28;20630;-69
2022/12/29 02:03:46;;;;;;;1.23;0.93;;;8.30;97.90;;;;;;5025649;28;20642;-68
2022/12/29 02:06:18;;;;;;;0.30;0.30;;;8.20;98.00;;;;;;5025321;28;20627;-68
2022/12/29 02:08:47;;;;;;;0.50;0.50;;;8.20;98.10;;;;;;5008766;28;20628;-68
2022/12/29 02:11:17;;;;;;;1.53;1.07;;;8.20;97.90;;;;;;5028697;28;20741;-69
2022/12/29 02:13:44;;;;;;;0.70;0.60;;;8.20;97.90;;;;;;5049541;28;21073;-68
2022/12/29 02:16:27;;;;;;;0.30;0.20;;;8.20;97.90;;;;;;5047920;28;20630;-69
2022/12/29 02:19:10;;;;;;;0.50;0.50;;;8.20;97.80;;;;;;5028157;28;21256;-68
2022/12/29 02:21:51;;;;;;;0.53;0.30;;;8.10;98.30;;;;;;5028374;28;20712;-68
2022/12/29 02:24:53;;;;;;;0.90;0.70;;;8.10;98.00;;;;;;5028580;28;21148;-68
2022/12/29 02:27:47;;;;;;;0.50;0.50;;;8.10;97.90;;;;;;5035680;28;20638;-70
2022/12/29 02:30:38;;;;;;;1.27;0.53;;;8.90;99.90;;;;;;5026315;28;20643;-70
2022/12/29 02:33:16;;;;;;;0.80;0.60;;;8.20;97.70;;;;;;5025660;28;21217;-69
2022/12/29 02:35:52;;;;;;;0.43;0.43;;;8.30;97.70;;;;;;5029255;28;20635;-68
2022/12/29 02:38:26;;;;;;;0.30;0.20;;;8.30;97.50;;;;;;5008966;28;20620;-69
2022/12/29 02:41:00;;;;;;;0.50;0.20;;;8.40;97.70;;;;;;5015145;28;21177;-68
2022/12/29 02:43:35;;;;;;;2.10;0.70;;;8.50;97.40;;;;;;5040587;28;20715;-69
2022/12/29 02:46:11;;;;;;;3.43;0.97;;;8.40;97.50;;;;;;5033848;28;21011;-68
2022/12/29 02:48:44;;;;;;;0.93;0.53;;;8.40;97.60;;;;;;5028772;28;20645;-69
2022/12/29 02:51:19;;;;;;;1.07;0.97;;;8.60;97.70;;;;;;5037647;28;21103;-69
2022/12/29 02:56:34;;;;;;;0.50;0.40;;;8.50;97.30;;;;;;5032253;28;20633;-69
2022/12/29 02:59:03;;;;;;;2.10;0.60;;;8.60;97.40;;;;;;5038892;28;20726;-69
2022/12/29 03:02:16;;;;;;;0.30;0.30;;;8.60;97.40;;;;;;5028719;28;20619;-69
2022/12/29 03:04:39;;;;;;;0.70;0.70;;;8.70;97.20;;;;;;5008851;28;20640;-68
2022/12/29 03:07:17;;;;;;;0.83;0.83;;;8.70;97.10;;;;;;5012701;28;20619;-68
2022/12/29 03:09:52;;;;;;;0.40;0.30;;;8.80;97.00;;;;;;5039344;28;21269;-69
2022/12/29 03:18:15;;;;;;;0.60;0.30;;;8.80;96.70;;;;;;5046173;28;20687;-68
2022/12/29 03:20:50;;;;;;;0.50;0.43;;;8.70;97.00;;;;;;5027463;28;21011;-68
2022/12/29 03:23:19;;;;;;;1.37;0.57;;;8.80;97.00;;;;;;5027770;28;20634;-68
2022/12/29 03:25:50;;;;;;;0.40;0.40;;;8.90;96.60;;;;;;5027789;28;20722;-68
2022/12/29 03:28:22;;;;;;;1.13;0.50;;;9.00;96.50;;;;;;5028266;28;20634;-69
2022/12/29 03:30:50;;;;;;;0.60;0.30;;;9.00;96.30;;;;;;5027837;28;20615;-68
2022/12/29 03:33:22;;;;;;;0.90;0.80;;;9.00;96.40;;;;;;5046761;28;20642;-69
2022/12/29 03:35:55;;;;;;;0.50;0.30;;;8.90;99.90;;;;;;5044454;28;20621;-69
2022/12/29 03:38:29;;;;;;;0.87;0.50;;;9.00;96.40;;;;;;5027829;28;20716;-69
2022/12/29 03:40:59;;;;;;;0.40;0.40;;;9.10;96.30;;;;;;5036211;28;20638;-69
2022/12/29 03:43:28;;;;;;;0.60;0.50;;;9.30;96.20;;;;;;5027448;28;20699;-69
2022/12/29 03:45:55;;;;;;;0.30;0.20;;;9.40;96.10;;;;;;5028474;28;20989;-69
2022/12/29 03:48:24;;;;;;;0.53;0.53;;;9.40;96.20;;;;;;5047346;28;21219;-69
2022/12/29 03:50:52;;;;;;;0.60;0.47;;;9.50;96.20;;;;;;5034346;28;20627;-69
2022/12/29 03:53:19;;;;;;;0.50;0.30;;;9.50;96.40;;;;;;5027107;28;20698;-69
2022/12/29 03:55:47;;;;;;;0.47;0.27;;;9.40;96.50;;;;;;5031509;28;20614;-68
2022/12/29 03:58:15;;;;;;;0.50;0.50;;;9.40;96.30;;;;;;5028467;28;20659;-69
2022/12/29 04:00:42;;;;;;;0.40;0.20;;;9.40;96.40;;;;;;5027353;28;20707;-69
2022/12/29 04:03:11;;;;;;;1.27;1.17;;;9.50;96.20;;;;;;5027861;28;20631;-69
2022/12/29 04:05:39;;;;;;;0.40;0.40;;;9.30;96.40;;;;;;5028176;28;20726;-68
2022/12/29 04:08:07;;;;;;;2.10;1.20;;;9.30;96.40;;;;;;5041010;28;20635;-68
2022/12/29 04:10:34;;;;;;;0.77;0.50;;;9.30;96.60;;;;;;5026876;28;20715;-68
2022/12/29 04:13:01;;;;;;;2.20;1.00;;;9.30;96.50;;;;;;5026229;28;20619;-68
2022/12/29 04:15:28;;;;;;;0.40;0.30;;;9.40;97.00;;;;;;5027276;28;20628;-68
2022/12/29 04:17:55;;;;;;;0.50;0.50;;;9.30;96.70;;;;;;5040181;28;20664;-69
2022/12/29 04:23:16;;;;;;;0.80;0.63;;;9.20;96.80;;;;;;4971038;28;20647;-69
2022/12/29 04:25:46;;;;;;;0.83;0.57;;;9.20;97.00;;;;;;5019918;28;20619;-69
2022/12/29 04:28:13;;;;;;;0.60;0.40;;;9.10;97.30;;;;;;5044333;28;20721;-69
2022/12/29 04:30:39;;;;;;;0.40;0.30;;;9.10;97.40;;;;;;5044371;28;21265;-69
2022/12/29 04:33:06;;;;;;;0.60;0.30;;;9.10;97.50;;;;;;5044236;28;20627;-69
2022/12/29 04:35:33;;;;;;;0.60;0.50;;;9.10;97.60;;;;;;5036590;28;20631;-68
2022/12/29 04:38:00;;;;;;;1.90;0.73;;;9.10;97.90;;;;;;5026742;28;20639;-69
2022/12/29 04:40:28;;;;;;;0.60;0.60;;;9.30;99.90;;;;;;5036107;28;20618;-69
2022/12/29 04:42:55;;;;;;;0.70;0.47;;;9.20;97.80;;;;;;5025182;28;20625;-69
2022/12/29 04:45:22;;;;;;;0.70;0.70;;;9.40;97.70;;;;;;5028554;28;20638;-69
2022/12/29 04:47:49;;;;;;;0.60;0.60;;;9.40;97.80;;;;;;5046449;28;20642;-68
2022/12/29 04:50:16;;;;;;;0.30;0.30;;;9.30;98.00;;;;;;5043335;28;20631;-69
2022/12/29 04:52:43;;;;;;;0.50;0.50;;;9.50;97.80;;;;;;5045555;28;20631;-69
2022/12/29 04:55:10;;;;;;;1.63;0.83;;;9.50;97.80;;;;;;5043727;28;20861;-69
2022/12/29 04:57:38;;;;;;;0.70;0.70;;;9.50;97.90;;;;;;5038686;28;20689;-68
2022/12/29 05:00:06;;;;;;;0.60;0.60;;;9.50;97.70;;;;;;5030597;28;20633;-69
2022/12/29 05:02:33;;;;;;;0.60;0.53;;;9.40;97.90;;;;;;5033545;28;20741;-68
2022/12/29 05:05:00;;;;;;;0.70;0.70;;;9.40;98.00;;;;;;5037840;28;20632;-69
2022/12/29 05:07:26;;;;;;;0.50;0.50;;;9.30;98.20;;;;;;5026317;28;20634;-69
2022/12/29 05:09:53;;;;;;;0.70;0.60;;;9.40;98.10;;;;;;5039763;28;20635;-69
2022/12/29 05:12:20;;;;;;;1.67;1.57;;;9.40;98.10;;;;;;5044418;28;20654;-69
2022/12/29 05:14:48;;;;;;;0.80;0.70;;;9.40;98.00;;;;;;5036149;28;20666;-69
2022/12/29 05:17:15;;;;;;;0.80;0.80;;;9.30;98.10;;;;;;5033357;28;20622;-68
2022/12/29 05:19:41;;;;;;;0.80;0.80;;;9.40;98.00;;;;;;5034752;28;20730;-68
2022/12/29 05:22:08;;;;;;;0.73;0.73;;;9.40;98.20;;;;;;5026278;28;20639;-68
2022/12/29 05:24:35;;;;;;;0.83;0.83;;;9.40;98.20;;;;;;5026205;28;20653;-69
2022/12/29 05:27:02;;;;;;;1.03;0.63;;;9.40;98.20;;;;;;5040390;28;20654;-68
2022/12/29 05:29:29;;;;;;;0.50;0.40;;;9.50;98.00;;;;;;5033119;28;20628;-68
2022/12/29 05:31:57;;;;;;;0.40;0.40;;;9.60;97.80;;;;;;5029463;28;20623;-69
2022/12/29 05:34:23;;;;;;;3.33;1.30;;;9.60;97.80;;;;;;5025182;28;21287;-69
2022/12/29 05:36:50;;;;;;;0.93;0.70;;;9.60;97.90;;;;;;5028529;28;20631;-69
2022/12/29 05:39:17;;;;;;;0.60;0.50;;;9.60;97.90;;;;;;5026933;28;20627;-69
2022/12/29 05:41:44;;;;;;;0.60;0.60;;;9.50;98.00;;;;;;5033664;28;20629;-68
2022/12/29 05:44:11;;;;;;;0.70;0.70;;;9.60;97.90;;;;;;5030756;28;20648;-68
2022/12/29 05:46:38;;;;;;;0.60;0.60;;;9.60;98.00;;;;;;5039379;28;21077;-69
2022/12/29 05:49:06;;;;;;;0.43;0.43;;;9.60;97.90;;;;;;5030050;28;21296;-68
2022/12/29 05:51:33;;;;;;;0.93;0.93;;;9.50;97.90;;;;;;5031720;28;20634;-68
2022/12/29 05:54:00;;;;;;;1.57;0.70;;;9.50;97.60;;;;;;5030368;28;20732;-70
2022/12/29 05:56:27;;;;;;;0.37;0.33;;;9.60;97.60;;;;;;5045384;28;20619;-68
2022/12/29 05:58:54;;;;;;;1.90;1.13;;;9.60;97.70;;;;;;5029974;28;20638;-68
2022/12/29 06:01:21;;;;;;;1.27;0.70;;;9.60;97.80;;;;;;5034785;28;20662;-68
2022/12/29 06:03:47;;;;;;;0.50;0.40;;;9.60;97.70;;;;;;5042140;28;20623;-69
2022/12/29 06:06:16;;;;;;;0.57;0.57;;;9.60;97.70;;;;;;5049086;28;20662;-69
2022/12/29 06:08:43;;;;;;;0.77;0.50;;;9.60;97.70;;;;;;5029904;28;20626;-69
2022/12/29 06:11:10;;;;;;;0.77;0.70;;;9.50;97.70;;;;;;5047492;28;20633;-71
2022/12/29 06:13:37;;;;;;;1.33;1.00;;;9.50;97.40;;;;;;5029986;28;21063;-69
2022/12/29 06:16:04;;;;;;;1.30;1.20;;;9.60;97.30;;;;;;5031081;28;20631;-69
2022/12/29 06:18:31;;;;;;;0.30;0.20;;;9.60;97.40;;;;;;5040982;28;21074;-70
2022/12/29 06:21:01;;;;;;;0.70;0.50;;;9.60;97.20;;;;;;5048764;28;20611;-69
2022/12/29 06:23:33;;;;;;;0.40;0.40;;;9.90;99.90;;;;;;5049707;28;20606;-69
2022/12/29 06:25:59;;;;;;;1.10;0.47;;;9.80;97.10;;;;;;5045348;28;20634;-68
2022/12/29 06:28:26;;;;;;;0.47;0.47;;;9.80;97.10;;;;;;5042873;28;20634;-68
2022/12/29 06:30:53;;;;;;;1.37;1.27;;;9.70;97.10;;;;;;5029031;28;20627;-69
2022/12/29 06:33:20;;;;;;;2.30;0.63;;;9.70;96.90;;;;;;5041769;28;20982;-69
2022/12/29 06:35:47;;;;;;;2.40;0.60;;;9.60;96.60;;;;;;5030192;28;20704;-70
2022/12/29 06:38:14;;;;;;;0.37;0.37;;;9.60;96.50;;;;;;5030229;28;20685;-69
2022/12/29 06:40:44;;;;;;;0.97;0.50;;;9.60;96.50;;;;;;5030710;28;20623;-70
2022/12/29 06:43:11;;;;;;;1.90;1.17;;;9.50;99.20;;;;;;5037217;28;20710;-68
2022/12/29 06:45:38;;;;;;;2.17;1.30;;;9.60;96.50;;;;;;5029712;28;20629;-68
2022/12/29 06:48:05;;;;;;;1.13;0.87;;;9.50;96.50;;;;;;5029351;28;21252;-68
2022/12/29 06:50:32;;;;;;;0.80;0.70;;;9.70;99.70;;;;;;5030544;28;20618;-69
2022/12/29 06:52:59;;;;;;;0.40;0.40;;;9.50;96.50;;;;;;5047721;28;20617;-69
2022/12/29 06:55:26;;;;;;;0.50;0.50;;;9.50;96.60;;;;;;5047448;28;20670;-69
2022/12/29 06:57:56;;;;;;;0.40;0.30;;;9.50;96.50;;;;;;5028924;28;20758;-71
2022/12/29 07:00:23;;;;;;;0.67;0.67;;;9.50;96.40;;;;;;5029177;28;20616;-68
2022/12/29 07:02:50;;;;;;;0.53;0.30;;;9.40;96.40;;;;;;5029628;28;20965;-69
2022/12/29 07:05:17;;;;;;;0.60;0.60;;;9.40;96.30;;;;;;5028668;28;20611;-69
2022/12/29 07:07:44;;;;;;;1.13;0.83;;;9.40;96.60;;;;;;5014566;28;20989;-69
2022/12/29 07:10:11;;;;;;;1.03;0.77;;;9.50;96.70;;;;;;5026345;28;20646;-69
2022/12/29 07:12:37;;;;;;;0.40;0.40;;;9.40;96.50;;;;;;5046355;28;20622;-69
2022/12/29 07:15:07;;;;;;;0.77;0.73;;;9.40;96.70;;;;;;5039717;28;20655;-69
2022/12/29 07:17:33;;;;;;;3.60;0.50;;;9.30;96.60;;;;;;5040164;28;20752;-69
2022/12/29 07:20:00;;;;;;;0.87;0.87;;;9.20;96.90;;;;;;5049067;28;20821;-69
2022/12/29 07:22:27;;;;;;;0.80;0.80;;;9.10;96.90;;;;;;5040222;28;20987;-69
2022/12/29 07:24:54;;;;;;;1.80;0.67;;;9.10;96.90;;;;;;5036439;28;20984;-69
2022/12/29 07:27:20;;;;;;;0.60;0.60;;;9.00;97.00;;;;;;5032225;28;20734;-69
2022/12/29 07:29:47;;;;;;;1.00;0.90;;;9.10;96.90;;;;;;5036757;28;20626;-69
2022/12/29 07:32:15;;;;;;;1.13;1.00;;;9.00;97.10;;;;;;5026121;28;20623;-69
2022/12/29 07:34:45;;;;;;;1.63;0.63;;;8.70;98.50;;;;;;5028520;28;20772;-69
2022/12/29 07:37:13;;;;;;;0.60;0.60;;;8.90;97.30;;;;;;5027232;28;20563;-69
2022/12/29 07:39:40;;;;;;;1.93;0.90;;;8.90;97.30;;;;;;5040347;28;20631;-69
2022/12/29 07:42:13;;;;;;;0.60;0.60;;;9.00;97.30;;;;;;5035973;28;20637;-69
2022/12/29 07:44:40;;;;;;;0.70;0.70;;;9.00;97.10;;;;;;5027285;28;21023;-69
2022/12/29 07:47:06;;;;;;;0.50;0.47;;;9.00;97.30;;;;;;5028048;28;21199;-69
2022/12/29 07:49:34;;;;;;;1.17;1.07;;;8.90;97.40;;;;;;5031398;28;20974;-69
2022/12/29 07:52:01;;;;;;;0.40;0.40;;;8.90;97.50;;;;;;5036699;28;20627;-68
2022/12/29 07:54:28;;;;;;;0.53;0.53;;;9.00;97.40;;;;;;5027879;28;20658;-69
2022/12/29 07:56:55;;;;;;;0.60;0.43;;;9.00;97.80;;;;;;5041930;28;20680;-69
2022/12/29 07:59:22;;;;;;;0.60;0.43;;;9.10;97.50;;;;;;5034259;28;20623;-69
2022/12/29 08:01:48;;;;;;;1.17;0.57;;;9.10;97.50;;;;;;5033765;28;20645;-69
2022/12/29 08:04:15;;;;;;;1.57;0.30;;;9.20;97.50;;;;;;5028210;28;20624;-69
2022/12/29 08:06:45;;;;;;;1.03;0.67;;;9.20;97.50;;;;;;5029861;28;20630;-69
2022/12/29 08:09:12;;;;;;;1.50;0.60;;;9.20;97.30;;;;;;5030303;28;20730;-69
2022/12/29 08:11:40;;;;;;;0.40;0.40;;;9.30;97.20;;;;;;5046032;28;20618;-69
2022/12/29 08:14:07;;;;;;;2.00;0.70;;;9.20;97.40;;;;;;5047659;28;20618;-69
2022/12/29 08:16:34;;;;;;;0.57;0.57;;;9.20;99.90;;;;;;5036330;28;20631;-69
2022/12/29 08:19:00;;;;;;;0.30;0.27;;;9.40;99.90;;;;;;5027929;28;20619;-68
2022/12/29 08:21:28;;;;;;;0.73;0.60;;;9.30;97.40;;;;;;5034996;28;20642;-68
2022/12/29 08:23:56;;;;;;;0.60;0.60;;;9.40;97.20;;;;;;5027412;28;20646;-69
2022/12/29 08:26:23;;;;;;;0.77;0.50;;;9.30;99.80;;;;;;5027459;28;21215;-68
2022/12/29 08:28:52;;;;;;;2.77;1.00;;;9.50;97.20;;;;;;5040422;28;20638;-69
2022/12/29 08:31:19;;;;;;;2.43;2.00;;;9.60;97.10;;;;;;5041373;28;21097;-68
2022/12/29 08:33:46;;;;;;;0.80;0.60;;;9.60;97.20;;;;;;5021193;28;21212;-69
2022/12/29 08:36:12;;;;;;;0.40;0.40;;;9.60;97.30;;;;;;5031097;28;21238;-69
2022/12/29 08:38:39;;;;;;;0.60;0.20;;;9.70;97.00;;;;;;5031121;28;21426;-69
2022/12/29 08:41:07;;;;;;;1.60;1.03;;;10.10;99.20;;;;;;5029890;28;21167;-68
2022/12/29 08:43:34;;;;;;;1.07;1.07;;;9.80;96.90;;;;;;5031182;28;20987;-69
2022/12/29 08:46:01;;;;;;;1.33;1.23;;;9.70;97.10;;;;;;5027535;28;20627;-69
2022/12/29 08:48:28;;;;;;;0.60;0.60;;;9.70;97.00;;;;;;5027002;28;20623;-69
2022/12/29 08:50:55;;;;;;;0.53;0.53;;;9.70;97.10;;;;;;5026885;28;20637;-69
2022/12/29 08:53:22;;;;;;;0.80;0.40;;;9.70;97.00;;;;;;5028602;28;20651;-69
2022/12/29 08:55:56;;;;;;;0.90;0.87;;;9.70;96.90;;;;;;5030561;28;20670;-69
2022/12/29 08:58:24;;;;;;;1.90;0.67;;;9.80;96.80;;;;;;5042268;28;20631;-69
2022/12/29 09:00:53;;;;;;;0.80;0.80;;;9.80;96.90;;;;;;5028694;28;20987;-69
2022/12/29 09:03:20;;;;;;;0.47;0.37;;;9.80;96.70;;;;;;5026643;28;20624;-69
2022/12/29 09:05:49;;;;;;;4.13;0.57;;;9.90;97.10;;;;;;5027728;28;20627;-69
2022/12/29 09:08:16;;;;;;;0.43;0.43;;;9.80;96.90;;;;;;5028690;28;20649;-69
2022/12/29 09:10:43;;;;;;;0.73;0.73;;;10.00;97.90;;;;;;5030010;28;20637;-69
2022/12/29 09:13:10;;;;;;;0.63;0.63;;;9.90;96.70;;;;;;5046593;28;20722;-69
2022/12/29 09:15:38;;;;;;;0.50;0.43;;;9.80;97.00;;;;;;5044943;28;20658;-70
2022/12/29 09:18:05;;;;;;;0.70;0.50;;;9.90;96.80;;;;;;5038716;28;20627;-69
2022/12/29 09:20:31;;;;;;;1.50;1.17;;;10.00;96.00;;;;;;5032812;28;20630;-69
2022/12/29 09:22:58;;;;;;;10.90;1.40;;;10.00;96.10;;;;;;5032064;28;20844;-69
2022/12/29 09:25:25;;;;;;;1.10;0.80;;;10.00;96.30;;;;;;5029217;28;20621;-70
2022/12/29 09:27:53;;;;;;;0.60;0.60;;;10.10;95.90;;;;;;5029003;28;20642;-70
2022/12/29 09:30:21;;;;;;;1.60;1.07;;;10.10;96.20;;;;;;5030532;28;20627;-70
2022/12/29 09:32:50;;;;;;;3.53;2.00;;;10.20;96.00;;;;;;5049670;28;20641;-72
2022/12/29 09:35:18;;;;;;;0.80;0.80;;;10.10;98.20;;;;;;5035635;28;20781;-72
2022/12/29 09:37:44;;;;;;;0.70;0.70;;;10.20;95.90;;;;;;5037999;28;20667;-71
2022/12/29 09:40:26;;;;;;;0.70;0.43;;;10.40;95.80;;;;;;5030689;28;20635;-72
2022/12/29 09:43:13;;;;;;;0.50;0.50;;;10.40;95.70;;;;;;5034861;28;20639;-73
2022/12/29 09:45:46;;;;;;;0.73;0.57;;;10.40;95.60;;;;;;5030643;28;21287;-70
2022/12/29 09:48:18;;;;;;;1.03;1.03;;;10.40;95.60;;;;;;5030463;28;20732;-71
2022/12/29 09:50:50;;;;;;;2.30;1.07;;;10.50;95.40;;;;;;5031684;28;20634;-71
2022/12/29 09:53:26;;;;;;;0.87;0.87;;;10.50;95.50;;;;;;5034082;28;20629;-71
2022/12/29 09:55:56;;;;;;;0.60;0.60;;;10.60;95.20;;;;;;5034474;28;20674;-71
2022/12/29 09:58:30;;;;;;;0.70;0.70;;;10.80;95.40;;;;;;5030512;28;20615;-70
2022/12/29 10:01:02;;;;;;;2.10;0.97;;;10.90;94.90;;;;;;5029615;28;20619;-70
2022/12/29 10:03:44;;;;;;;1.90;1.05;;;11.20;97.40;;;;;;5031946;28;20746;-71
2022/12/29 10:06:15;;;;;;;2.60;1.10;;;10.90;95.10;;;;;;5041460;28;20208;-71
2022/12/29 10:08:48;;;;;;;0.50;0.50;;;10.80;95.10;;;;;;5025713;28;20630;-70
2022/12/29 10:11:29;;;;;;;1.73;1.00;;;10.90;95.40;;;;;;5038517;28;20633;-70
2022/12/29 10:14:18;;;;;;;2.10;0.90;;;10.80;95.40;;;;;;5024932;28;20631;-70
2022/12/29 10:16:52;;;;;;;1.10;1.10;;;10.90;95.20;;;;;;5029698;28;20662;-70
2022/12/29 10:19:48;;;;;;;0.93;0.73;;;11.00;95.00;;;;;;5030320;28;20627;-70
2022/12/29 10:22:29;;;;;;;0.90;0.90;;;11.00;95.20;;;;;;5047462;28;20623;-69
2022/12/29 10:24:56;;;;;;;0.50;0.50;;;10.90;95.50;;;;;;5034705;28;20615;-70
2022/12/29 10:27:24;;;;;;;0.57;0.57;;;10.90;95.70;;;;;;5043255;28;20626;-70
2022/12/29 10:29:56;;;;;;;0.57;0.57;;;10.90;95.60;;;;;;5038026;28;20620;-70
2022/12/29 10:32:30;;;;;;;0.80;0.77;;;11.00;95.50;;;;;;5039282;28;20645;-70
2022/12/29 10:35:04;;;;;;;0.90;0.60;;;11.10;95.50;;;;;;5028872;28;21471;-70
2022/12/29 10:37:38;;;;;;;0.50;0.50;;;11.40;95.10;;;;;;5027936;28;20627;-70
2022/12/29 10:40:16;;;;;;;0.83;0.83;;;11.40;95.40;;;;;;5022307;28;20627;-70
2022/12/29 10:42:50;;;;;;;0.57;0.57;;;11.50;95.10;;;;;;5028444;28;20623;-70
2022/12/29 10:45:19;;;;;;;1.20;1.10;;;11.30;95.10;;;;;;5022978;28;20643;-70
2022/12/29 10:47:54;;;;;;;1.00;0.73;;;11.50;95.30;;;;;;5029478;28;20618;-70
2022/12/29 10:50:24;;;;;;;1.13;0.70;;;11.70;95.30;;;;;;5028473;28;20630;-69
2022/12/29 10:52:52;;;;;;;1.47;1.37;;;11.90;95.10;;;;;;5025805;28;20632;-69
2022/12/29 10:55:22;;;;;;;0.53;0.53;;;11.90;95.00;;;;;;5027772;28;20669;-69
2022/12/29 10:57:49;;;;;;;3.57;1.67;;;11.90;94.70;;;;;;5019115;28;20620;-68
2022/12/29 11:00:20;;;;;;;0.60;0.60;;;11.90;95.00;;;;;;5032463;28;21295;-68
2022/12/29 11:03:19;;;;;;;0.63;0.63;;;11.90;95.00;;;;;;5045763;28;20629;-68
2022/12/29 11:05:54;;;;;;;0.60;0.60;;;11.90;95.20;;;;;;5036490;28;20725;-69
2022/12/29 11:08:25;;;;;;;1.67;1.00;;;12.10;94.50;;;;;;5036674;28;20638;-68
2022/12/29 11:11:00;;;;;;;0.93;0.70;;;12.10;94.40;;;;;;5024602;28;21194;-69
2022/12/29 11:13:29;;;;;;;1.10;0.93;;;12.10;94.20;;;;;;5028644;28;20635;-69
2022/12/29 11:15:55;;;;;;;0.80;0.60;;;12.00;94.60;;;;;;5029008;28;20658;-69
2022/12/29 11:18:24;;;;;;;1.00;0.90;;;12.00;94.50;;;;;;5027386;28;21010;-69
2022/12/29 11:20:55;;;;;;;0.60;0.60;;;11.90;94.20;;;;;;5027695;28;20628;-70
2022/12/29 11:23:30;;;;;;;0.67;0.67;;;11.90;95.10;;;;;;5027334;28;20632;-70
2022/12/29 11:26:13;;;;;;;0.73;0.60;;;11.90;94.60;;;;;;5028405;28;20998;-69
2022/12/29 11:28:41;;;;;;;0.50;0.50;;;12.00;94.90;;;;;;5031117;28;20631;-68
2022/12/29 11:31:09;;;;;;;1.43;0.93;;;12.00;95.60;;;;;;5027198;28;20626;-68
2022/12/29 11:33:37;;;;;;;0.47;0.40;;;11.90;95.50;;;;;;5027876;28;20631;-69
2022/12/29 11:36:08;;;;;;;0.87;0.70;;;11.80;95.30;;;;;;5027491;28;20675;-69
2022/12/29 11:38:37;;;;;;;0.87;0.87;;;11.80;96.30;;;;;;5035669;28;20620;-69
2022/12/29 11:41:06;;;;;;;1.17;1.07;;;11.70;96.40;;;;;;5027030;28;20638;-69
2022/12/29 11:43:35;;;;;;;1.23;0.80;;;11.60;96.50;;;;;;5027711;28;20635;-69
2022/12/29 11:46:03;;;;;;;0.50;0.50;;;11.60;97.00;;;;;;5047068;28;20625;-69
2022/12/29 11:48:33;;;;;;;0.57;0.40;;;11.60;97.70;;;;;;5036080;28;20631;-70
2022/12/29 11:51:00;;;;;;;2.10;0.77;;;11.60;97.80;;;;;;5030242;28;20626;-69
2022/12/29 11:53:37;;;;;;;1.13;0.77;;;11.60;97.10;;;;;;5028425;28;20722;-69
2022/12/29 11:56:09;;;;;;;0.77;0.73;;;11.60;97.20;;;;;;5030761;28;20669;-69
2022/12/29 11:58:37;;;;;;;0.90;0.63;;;11.70;96.80;;;;;;5028139;28;20625;-69
2022/12/29 12:01:07;;;;;;;0.50;0.50;;;11.70;98.60;;;;;;5031796;28;22407;-70
2022/12/29 12:03:38;;;;;;;1.27;0.80;;;11.60;97.30;;;;;;5028571;28;20639;-69
2022/12/29 12:06:11;;;;;;;0.50;0.50;;;11.60;97.50;;;;;;5037710;28;20641;-69
2022/12/29 12:08:44;;;;;;;1.00;0.90;;;11.50;98.30;;;;;;5032293;28;20626;-69
2022/12/29 12:11:15;;;;;;;4.67;1.00;;;11.60;96.80;;;;;;5026270;28;20619;-69
2022/12/29 12:13:52;;;;;;;0.40;0.40;;;11.60;96.90;;;;;;5033104;28;21256;-69
2022/12/29 12:16:22;;;;;;;1.53;0.90;;;11.70;96.70;;;;;;5020354;28;20765;-70
2022/12/29 12:18:53;;;;;;;4.20;0.80;;;11.60;96.60;;;;;;5029823;28;20620;-69
2022/12/29 12:21:26;;;;;;;0.53;0.53;;;11.50;96.70;;;;;;5026419;28;20636;-70
2022/12/29 12:24:31;;;;;;;0.63;0.63;;;11.50;96.70;;;;;;5026040;28;20659;-71
2022/12/29 12:27:04;;;;;;;0.57;0.47;;;11.50;96.90;;;;;;5033364;28;20619;-70
2022/12/29 12:29:39;;;;;;;0.63;0.63;;;11.50;97.10;;;;;;5026552;28;20694;-69
2022/12/29 12:32:13;;;;;;;0.50;0.40;;;11.60;97.50;;;;;;5026462;28;20631;-69
2022/12/29 12:34:43;;;;;;;0.40;0.37;;;11.60;97.30;;;;;;5032676;28;20633;-69
2022/12/29 12:37:45;;;;;;;1.00;0.90;;;11.60;97.50;;;;;;5032715;28;20673;-69
2022/12/29 12:40:40;;;;;;;1.07;0.70;;;11.60;98.50;;;;;;5012288;28;20651;-69
2022/12/29 12:43:28;;;;;;;1.20;0.80;;;11.40;99.20;;;;;;5034948;28;20634;-70
2022/12/29 12:46:08;;;;;;;0.80;0.80;;;11.30;99.80;;;;;;5025741;28;21437;-70
2022/12/29 12:49:00;;;;;;;1.23;0.80;;;11.30;99.90;;;;;;5026308;28;20629;-69
2022/12/29 12:51:37;;;;;;;0.70;0.40;;;11.10;99.90;;;;;;5027998;28;21049;-69
2022/12/29 12:54:19;;;;;;;2.03;1.60;;;11.20;99.90;;;;;;5025695;28;20655;-70
2022/12/29 12:56:56;;;;;;;0.60;0.60;;;11.00;99.90;;;;;;5025889;28;20659;-69
2022/12/29 12:59:38;;;;;;;0.80;0.80;;;11.10;99.90;;;;;;5025449;28;20627;-69
2022/12/29 13:02:20;;;;;;;0.60;0.60;;;11.20;99.90;;;;;;5027896;28;20681;-69
2022/12/29 13:05:05;;;;;;;0.57;0.57;;;11.20;99.90;;;;;;5025151;28;20611;-70
2022/12/29 13:07:45;;;;;;;0.83;0.70;;;11.30;99.90;;;;;;5026791;28;20714;-70
2022/12/29 13:10:26;;;;;;;1.77;0.70;;;11.50;99.90;;;;;;5024681;28;20631;-69
2022/12/29 13:13:09;;;;;;;5.43;1.10;;;11.30;99.90;;;;;;5028433;28;20637;-70
2022/12/29 13:15:47;;;;;;;2.40;1.20;;;11.30;99.90;;;;;;5026819;28;20619;-69
2022/12/29 13:18:24;;;;;;;0.60;0.60;;;11.40;99.90;;;;;;5026232;28;20706;-71
2022/12/29 13:20:56;;;;;;;0.70;0.60;;;11.40;99.90;;;;;;5030207;28;20633;-69
2022/12/29 13:23:28;;;;;;;1.50;0.80;;;11.40;99.90;;;;;;5045892;28;20633;-70
2022/12/29 13:26:05;;;;;;;1.27;0.80;;;11.40;99.90;;;;;;5034380;28;20624;-69
2022/12/29 13:28:41;;;;;;;0.57;0.57;;;11.40;99.70;;;;;;5008063;28;20698;-69
2022/12/29 13:31:16;;;;;;;1.20;1.10;;;11.40;99.70;;;;;;5027396;28;20621;-70
2022/12/29 13:33:54;;;;;;;0.70;0.70;;;11.40;99.60;;;;;;5031723;28;20639;-69
2022/12/29 13:36:25;;;;;;;0.50;0.50;;;11.50;99.40;;;;;;5028052;28;20658;-69
2022/12/29 13:39:02;;;;;;;0.80;0.80;;;11.30;99.50;;;;;;5028505;28;20632;-70
2022/12/29 13:41:35;;;;;;;0.53;0.43;;;11.30;99.60;;;;;;5026252;28;21188;-70
2022/12/29 13:44:04;;;;;;;0.60;0.60;;;11.30;99.40;;;;;;5023711;28;20632;-70
2022/12/29 13:46:38;;;;;;;5.57;0.93;;;11.30;99.60;;;;;;5026288;28;20628;-70
2022/12/29 13:49:13;;;;;;;1.83;1.00;;;11.30;99.70;;;;;;5026308;28;20638;-70
2022/12/29 13:51:43;;;;;;;1.57;0.83;;;11.30;99.80;;;;;;5037228;28;20622;-69
2022/12/29 13:54:26;;;;;;;1.60;1.00;;;11.30;99.90;;;;;;5036900;28;20635;-69